Terminal Aerodrome Forecast
Issued by NWS

Home | Current Version | Previous Version | Graphics & Text | Print | Product List | Glossary On
Versions: 1 2 3 4 5 6 7 8 9 10 11 12 13 14 15 16
000
FTUS45 KGGW 131720
TAFSDY
TAF
KSDY 131720Z 1318/1418 31017KT P6SM BKN200
     FM140200 29008KT P6SM BKN170
     FM140600 29013KT P6SM VCSH OVC050
     FM140800 31017KT P6SM VCSH OVC030
     FM141100 32018KT P6SM VCSH OVC020
     FM141600 32015KT P6SM BKN019=

USA.gov is the U.S. government's official web portal to all federal, state and local government web resources and services.